Time;durP1;ratioP1;P1;durP2;ratioP2;P2;SDS_P1;SDS_P2;PMS_P1;PMS_P2;Temp;Humidity;BMP_temperature;BMP_pressure;BME280_temperature;BME280_humidity;BME280_pressure;Samples;Min_cycle;Max_cycle;Signal;HPM_P1;HPM_P2
2024/04/17 00:04:31;;;;;;;10.40;7.10;;;;;;;3.40;77.09;98278.60;217385;1260;139706;-68
2024/04/17 00:09:32;;;;;;;12.90;7.80;;;;;;;3.33;77.03;98283.42;217222;1259;139564;-69
2024/04/17 00:14:34;;;;;;;12.00;7.40;;;;;;;3.28;77.16;98277.48;217394;1255;141631;-68
2024/04/17 00:19:35;;;;;;;11.30;7.10;;;;;;;3.20;77.32;98277.86;217628;1257;141188;-67
2024/04/17 00:24:37;;;;;;;10.50;6.10;;;;;;;3.10;77.03;98281.56;217308;1257;141553;-67
2024/04/17 00:29:38;;;;;;;9.50;6.50;;;;;;;2.92;76.76;98286.68;217255;1259;140821;-68
2024/04/17 00:34:40;;;;;;;9.70;6.20;;;;;;;2.73;76.58;98289.41;217321;1256;139331;-66
2024/04/17 00:39:41;;;;;;;6.40;5.10;;;;;;;2.60;77.11;98285.07;217304;1259;141225;-68
2024/04/17 00:44:44;;;;;;;8.10;4.90;;;;;;;2.45;76.82;98283.73;217464;1257;140029;-67
2024/04/17 00:49:46;;;;;;;6.70;4.20;;;;;;;2.31;77.03;98286.48;217652;1257;139338;-68
2024/04/17 00:54:48;;;;;;;10.10;4.90;;;;;;;2.18;77.20;98293.07;217443;1258;141687;-71
2024/04/17 00:59:52;;;;;;;10.70;6.40;;;;;;;2.17;77.65;98296.44;217447;1259;235697;-68
2024/04/17 01:04:53;;;;;;;6.40;4.80;;;;;;;2.17;78.10;98294.17;217420;1259;162374;-70
2024/04/17 01:09:54;;;;;;;4.70;3.60;;;;;;;2.08;77.25;98297.54;218754;1260;139774;-67
2024/04/17 01:14:55;;;;;;;7.70;5.10;;;;;;;1.92;77.16;98308.59;217264;1261;139427;-67
2024/04/17 01:19:57;;;;;;;10.30;5.40;;;;;;;1.74;77.46;98309.00;217450;1257;139894;-66
2024/04/17 01:24:58;;;;;;;9.60;5.60;;;;;;;1.71;78.32;98300.82;217346;1259;140670;-69
2024/04/17 01:30:00;;;;;;;13.70;7.30;;;;;;;1.69;78.24;98298.77;217315;1255;140730;-68
2024/04/17 01:35:01;;;;;;;9.50;6.90;;;;;;;1.60;78.09;98301.89;217463;1255;139902;-68
2024/04/17 01:40:04;;;;;;;9.60;5.50;;;;;;;1.49;77.80;98302.20;217662;1256;140217;-69
2024/04/17 01:45:06;;;;;;;9.10;6.80;;;;;;;1.33;77.82;98308.98;217499;1259;140099;-67
2024/04/17 01:50:08;;;;;;;9.90;6.70;;;;;;;1.23;78.52;98310.83;218353;1258;139513;-69
2024/04/17 01:55:09;;;;;;;9.30;5.60;;;;;;;1.18;78.52;98305.86;217152;1260;208936;-71
2024/04/17 02:00:10;;;;;;;11.20;7.70;;;;;;;1.16;78.53;98309.34;218387;1260;140357;-68
2024/04/17 02:05:12;;;;;;;12.60;7.70;;;;;;;1.06;78.57;98321.69;217435;1259;140044;-66
2024/04/17 02:10:13;;;;;;;12.80;7.10;;;;;;;0.98;79.18;98325.50;217317;1259;142042;-67
2024/04/17 02:15:14;;;;;;;18.90;8.50;;;;;;;1.00;79.38;98321.61;217347;1256;141314;-66
2024/04/17 02:20:16;;;;;;;9.90;6.80;;;;;;;1.04;79.57;98317.21;217328;1260;140733;-67
2024/04/17 02:25:17;;;;;;;12.60;8.10;;;;;;;1.09;79.93;98304.96;217266;1257;140502;-67
2024/04/17 02:30:18;;;;;;;10.10;6.00;;;;;;;1.16;80.37;98304.09;217487;1259;140001;-68
2024/04/17 02:35:20;;;;;;;10.40;6.60;;;;;;;1.23;81.03;98294.79;217450;1259;140048;-67
2024/04/17 02:40:21;;;;;;;11.70;7.70;;;;;;;1.32;81.07;98291.36;217586;1259;140322;-66
2024/04/17 02:45:23;;;;;;;14.60;8.00;;;;;;;1.37;81.05;98291.45;217567;1257;140759;-67
2024/04/17 02:50:26;;;;;;;16.70;9.60;;;;;;;1.43;81.37;98291.79;217733;1259;139838;-66
2024/04/17 02:55:27;;;;;;;13.10;8.40;;;;;;;1.46;81.77;98286.08;218058;1259;140406;-67
2024/04/17 03:00:29;;;;;;;9.00;6.70;;;;;;;1.51;81.52;98287.26;217625;1255;140951;-67
2024/04/17 03:05:39;;;;;;;13.70;7.80;;;;;;;1.59;81.79;98286.90;218147;1256;139529;-67
2024/04/17 03:10:40;;;;;;;12.50;7.00;;;;;;;1.69;82.20;98288.38;217756;1257;139998;-67
2024/04/17 03:15:42;;;;;;;10.20;5.50;;;;;;;1.78;82.30;98284.56;217457;1256;139829;-66
2024/04/17 03:20:44;;;;;;;9.90;6.20;;;;;;;1.83;82.32;98291.40;219282;1256;140004;-68
2024/04/17 03:25:57;;;;;;;7.30;5.10;;;;;;;1.88;82.45;98299.84;219434;1258;140461;-70
2024/04/17 03:31:00;;;;;;;11.20;8.40;;;;;;;1.89;82.46;98314.65;220031;1257;140597;-71
2024/04/17 03:36:01;;;;;;;15.80;8.40;;;;;;;1.94;82.51;98322.86;219874;1257;140287;-69
2024/04/17 03:41:03;;;;;;;14.90;6.60;;;;;;;2.09;83.12;98333.13;218341;1260;139863;-69
2024/04/17 03:46:04;;;;;;;8.40;6.50;;;;;;;2.23;83.33;98338.97;217830;1257;141315;-70
2024/04/17 03:51:06;;;;;;;12.80;7.60;;;;;;;2.38;83.54;98344.12;217466;1260;140026;-69
2024/04/17 03:56:07;;;;;;;13.90;6.60;;;;;;;2.51;83.80;98341.52;218075;1256;139739;-67
2024/04/17 04:01:09;;;;;;;6.30;5.60;;;;;;;2.62;83.78;98340.13;217572;1261;139914;-67
2024/04/17 04:06:10;;;;;;;15.30;7.80;;;;;;;2.72;83.78;98341.89;217193;1260;140419;-68
2024/04/17 04:11:12;;;;;;;12.30;6.20;;;;;;;2.84;83.96;98344.59;217310;1260;140405;-67
2024/04/17 04:16:14;;;;;;;8.40;5.40;;;;;;;2.94;83.95;98346.23;217589;1256;139952;-68
2024/04/17 04:21:15;;;;;;;10.90;6.30;;;;;;;3.05;83.97;98355.38;217280;1261;140289;-67
2024/04/17 04:26:16;;;;;;;7.20;5.20;;;;;;;3.15;84.08;98356.39;217646;1259;140821;-66
2024/04/17 04:31:17;;;;;;;6.80;5.60;;;;;;;3.25;84.11;98352.77;217882;1256;141322;-68
2024/04/17 04:36:19;;;;;;;7.70;5.60;;;;;;;3.33;83.96;98360.55;217769;1261;140180;-66
2024/04/17 04:41:21;;;;;;;9.70;5.80;;;;;;;3.43;83.93;98366.22;217094;1259;139372;-67
2024/04/17 04:46:23;;;;;;;7.30;5.30;;;;;;;3.53;84.11;98371.61;217340;1256;139517;-67
2024/04/17 04:51:25;;;;;;;7.70;4.90;;;;;;;3.62;83.98;98379.62;217314;1260;236709;-67
2024/04/17 04:56:26;;;;;;;10.90;5.50;;;;;;;3.68;84.08;98381.65;217486;1261;139732;-66
2024/04/17 05:01:32;;;;;;;5.30;4.80;;;;;;;3.75;83.86;98384.85;217392;1261;140613;-67
2024/04/17 05:06:34;;;;;;;4.70;4.20;;;;;;;3.81;83.86;98388.07;217253;1259;140441;-66
2024/04/17 05:11:38;;;;;;;11.50;7.10;;;;;;;3.87;83.84;98391.11;217460;1259;141558;-67
2024/04/17 05:16:40;;;;;;;9.00;5.10;;;;;;;3.92;83.70;98396.43;217680;1259;140207;-66
2024/04/17 05:21:41;;;;;;;5.30;4.80;;;;;;;4.01;83.79;98398.44;219718;1259;140092;-69
2024/04/17 05:26:42;;;;;;;7.10;5.40;;;;;;;4.11;83.76;98401.06;218208;1260;139885;-70
2024/04/17 05:31:46;;;;;;;5.50;3.20;;;;;;;4.20;83.56;98399.52;219972;1257;139491;-69
2024/04/17 05:36:48;;;;;;;6.20;5.40;;;;;;;4.28;83.44;98399.06;218313;1262;141201;-69
2024/04/17 05:41:50;;;;;;;6.10;5.00;;;;;;;4.36;83.49;98402.33;217346;1257;139628;-67
2024/04/17 05:46:51;;;;;;;5.30;4.10;;;;;;;4.43;83.59;98407.18;217380;1259;139586;-67
2024/04/17 05:51:53;;;;;;;4.90;4.40;;;;;;;4.50;83.50;98414.95;217147;1262;141043;-67
2024/04/17 05:56:54;;;;;;;5.50;3.70;;;;;;;4.56;83.76;98419.17;217065;1259;139796;-67
2024/04/17 06:01:57;;;;;;;4.60;4.20;;;;;;;4.60;83.56;98427.80;217409;1262;139965;-67
2024/04/17 06:06:58;;;;;;;5.80;4.30;;;;;;;4.63;83.49;98432.88;216974;1261;139789;-67
2024/04/17 06:11:59;;;;;;;7.90;5.50;;;;;;;4.64;83.55;98439.83;217160;1260;140354;-66
2024/04/17 06:17:01;;;;;;;4.60;4.10;;;;;;;4.65;83.85;98445.75;217019;1259;140740;-68
2024/04/17 06:22:02;;;;;;;9.70;4.80;;;;;;;4.70;84.01;98451.27;217176;1260;139353;-66
2024/04/17 06:27:03;;;;;;;6.00;4.70;;;;;;;4.82;84.14;98456.83;217474;1259;140209;-67
2024/04/17 06:32:05;;;;;;;4.80;4.00;;;;;;;4.91;84.11;98461.04;217418;1257;139670;-66
2024/04/17 06:37:06;;;;;;;6.20;5.00;;;;;;;4.98;84.50;98459.05;218153;1259;140147;-70
2024/04/17 06:42:08;;;;;;;3.10;2.90;;;;;;;5.03;83.98;98456.16;217441;1259;139610;-69
2024/04/17 06:47:10;;;;;;;7.00;4.40;;;;;;;5.09;84.35;98455.91;217323;1259;140220;-69
2024/04/17 06:52:14;;;;;;;4.30;3.90;;;;;;;5.15;84.22;98461.49;217338;1255;141555;-70
2024/04/17 06:57:15;;;;;;;4.80;3.50;;;;;;;5.20;84.34;98466.45;218010;1256;140589;-69
2024/04/17 07:02:17;;;;;;;15.40;5.00;;;;;;;5.24;84.47;98470.02;220234;1256;139393;-70
2024/04/17 07:07:18;;;;;;;6.00;4.80;;;;;;;5.30;84.79;98473.92;220045;1259;139934;-71
2024/04/17 07:12:20;;;;;;;3.90;3.40;;;;;;;5.40;84.49;98475.05;220336;1255;140298;-71
2024/04/17 07:17:22;;;;;;;7.80;4.60;;;;;;;5.50;84.42;98482.02;218064;1259;139755;-70
2024/04/17 07:22:24;;;;;;;4.50;3.80;;;;;;;5.59;84.70;98486.27;218658;1257;139772;-73
2024/04/17 07:27:26;;;;;;;4.20;3.60;;;;;;;5.68;84.41;98484.56;218416;1257;139362;-70
2024/04/17 07:32:27;;;;;;;4.50;4.00;;;;;;;5.71;84.43;98482.83;217974;1257;140827;-68
2024/04/17 07:37:31;;;;;;;4.30;3.80;;;;;;;5.73;84.21;98485.08;217468;1260;140390;-68
2024/04/17 07:42:33;;;;;;;5.90;3.90;;;;;;;5.77;83.88;98488.02;217569;1259;151546;-67
2024/04/17 07:47:34;;;;;;;4.90;4.10;;;;;;;5.80;84.44;98486.98;217476;1257;141110;-69
2024/04/17 07:52:35;;;;;;;4.90;4.50;;;;;;;5.81;84.11;98487.77;218183;1257;139654;-67
2024/04/17 07:57:37;;;;;;;7.80;5.60;;;;;;;5.90;84.45;98491.79;217617;1259;140630;-70
2024/04/17 08:02:39;;;;;;;6.10;4.30;;;;;;;6.09;84.40;98498.52;217573;1259;139801;-68
2024/04/17 08:07:41;;;;;;;6.20;3.90;;;;;;;6.35;84.64;98498.95;218368;1257;141135;-67
2024/04/17 08:12:44;;;;;;;7.00;5.40;;;;;;;6.55;84.27;98498.27;217772;1257;140284;-67
2024/04/17 08:17:45;;;;;;;5.00;4.20;;;;;;;6.62;83.96;98501.27;217706;1257;139974;-67
2024/04/17 08:22:47;;;;;;;6.20;4.10;;;;;;;6.62;83.87;98509.94;218005;1255;139946;-68
2024/04/17 08:27:49;;;;;;;7.80;5.70;;;;;;;6.68;83.97;98511.16;217649;1257;140240;-68
2024/04/17 08:32:50;;;;;;;7.60;5.00;;;;;;;6.79;84.00;98518.06;217551;1260;139901;-68
2024/04/17 08:37:52;;;;;;;6.80;4.00;;;;;;;6.93;83.61;98522.17;218000;1257;139919;-68
2024/04/17 08:42:55;;;;;;;4.80;4.20;;;;;;;7.01;83.71;98524.63;218206;1256;139778;-68
2024/04/17 08:48:01;;;;;;;7.60;6.50;;;;;;;7.04;83.31;98528.06;217718;1256;139522;-68
2024/04/17 08:53:04;;;;;;;11.80;4.30;;;;;;;7.02;82.96;98533.02;217955;1257;139611;-69
2024/04/17 08:58:07;;;;;;;6.30;5.30;;;;;;;7.02;82.86;98534.98;217629;1259;139921;-68
2024/04/17 09:03:10;;;;;;;7.30;5.10;;;;;;;7.04;82.95;98546.61;220270;1258;140674;-68
2024/04/17 09:08:12;;;;;;;4.80;3.60;;;;;;;6.90;82.47;98554.96;219028;1259;141091;-69
2024/04/17 09:13:16;;;;;;;5.10;3.90;;;;;;;6.68;81.84;98564.50;220314;1257;140072;-68
2024/04/17 09:18:26;;;;;;;4.90;4.50;;;;;;;6.48;81.92;98572.98;218633;1259;141388;-68
2024/04/17 09:23:28;;;;;;;5.70;5.20;;;;;;;6.25;81.60;98586.73;218141;1260;139719;-68
2024/04/17 09:28:32;;;;;;;5.60;5.10;;;;;;;6.08;81.97;98594.32;217821;1260;139553;-69
2024/04/17 09:33:33;;;;;;;6.40;4.80;;;;;;;6.11;82.53;98596.01;217558;1260;139846;-68
2024/04/17 09:38:35;;;;;;;4.70;4.10;;;;;;;6.09;82.29;98599.11;218288;1260;140573;-68
2024/04/17 09:43:45;;;;;;;5.50;4.90;;;;;;;6.06;83.05;98604.02;217650;1258;139443;-68
2024/04/17 09:48:50;;;;;;;5.60;5.10;;;;;;;6.10;82.82;98608.38;218252;1257;139647;-68
2024/04/17 09:53:59;;;;;;;6.70;5.80;;;;;;;6.06;82.19;98608.36;217522;1258;140154;-68
2024/04/17 09:59:03;;;;;;;6.30;5.10;;;;;;;6.05;82.12;98609.40;217384;1261;139601;-69
2024/04/17 10:04:07;;;;;;;7.00;5.70;;;;;;;6.23;82.92;98614.98;217506;1260;139743;-69
2024/04/17 10:09:14;;;;;;;7.60;4.60;;;;;;;6.35;82.88;98617.10;217361;1260;140020;-68
2024/04/17 10:14:17;;;;;;;5.20;4.70;;;;;;;6.51;82.48;98624.11;217714;1260;141110;-68
2024/04/17 10:19:19;;;;;;;7.80;5.80;;;;;;;6.78;82.75;98622.23;217860;1255;139967;-68
2024/04/17 10:24:21;;;;;;;6.00;4.70;;;;;;;6.92;81.83;98626.58;217925;1260;139617;-68
2024/04/17 10:29:30;;;;;;;9.30;6.30;;;;;;;6.91;81.59;98630.17;217670;1257;140417;-68
2024/04/17 10:35:01;;;;;;;4.60;4.20;;;;;;;6.92;81.46;98637.87;217542;1261;139846;-68
2024/04/17 10:40:03;;;;;;;5.90;3.40;;;;;;;6.91;80.49;98640.83;217509;1257;139880;-68
2024/04/17 10:45:05;;;;;;;4.10;3.40;;;;;;;6.94;80.88;98646.66;217603;1262;139436;-67
2024/04/17 10:50:07;;;;;;;7.00;2.90;;;;;;;6.93;80.24;98653.79;217584;1261;142092;-68
2024/04/17 10:55:10;;;;;;;6.30;2.90;;;;;;;6.95;80.10;98653.63;218260;1257;139857;-68
2024/04/17 11:00:12;;;;;;;3.30;2.80;;;;;;;6.97;79.93;98664.41;218058;1260;139327;-68
2024/04/17 11:05:14;;;;;;;3.70;2.90;;;;;;;7.02;79.93;98672.34;217405;1260;140405;-69
2024/04/17 11:10:16;;;;;;;5.40;2.90;;;;;;;6.97;79.07;98681.52;217533;1257;140820;-67
2024/04/17 11:15:18;;;;;;;3.30;3.00;;;;;;;6.95;78.87;98681.59;217311;1260;140283;-69
2024/04/17 11:20:20;;;;;;;3.90;2.30;;;;;;;6.93;78.53;98689.48;217740;1258;140654;-68
2024/04/17 11:25:22;;;;;;;2.70;2.50;;;;;;;6.92;78.62;98692.77;218450;1260;140543;-69
2024/04/17 11:30:23;;;;;;;4.70;2.00;;;;;;;7.06;78.32;98689.84;217497;1257;139868;-68
2024/04/17 11:35:25;;;;;;;3.50;2.30;;;;;;;7.14;77.83;98696.13;217466;1255;140334;-69
2024/04/17 11:40:27;;;;;;;4.90;2.00;;;;;;;7.06;77.18;98703.08;217462;1258;615769;-68
2024/04/17 11:45:29;;;;;;;2.10;1.90;;;;;;;7.10;77.02;98708.41;217866;1256;141017;-68
2024/04/17 11:50:30;;;;;;;2.00;1.90;;;;;;;7.11;76.91;98716.42;217913;1257;139986;-67
2024/04/17 11:55:32;;;;;;;2.80;2.10;;;;;;;7.08;76.27;98719.45;218075;1258;139300;-68
2024/04/17 12:00:34;;;;;;;3.20;3.00;;;;;;;7.10;76.35;98721.55;217177;1260;139939;-68
2024/04/17 12:05:35;;;;;;;2.80;2.00;;;;;;;7.14;76.08;98718.70;217378;1256;140878;-71
2024/04/17 12:10:37;;;;;;;2.40;1.80;;;;;;;7.16;75.73;98721.88;218116;1257;139721;-68
2024/04/17 12:15:39;;;;;;;2.70;1.60;;;;;;;7.19;75.56;98727.33;217517;1259;140931;-67
2024/04/17 12:20:41;;;;;;;3.50;2.00;;;;;;;7.19;74.87;98731.30;217540;1261;140187;-68
2024/04/17 12:31:03;;;;;;;3.30;2.20;;;;;;;7.17;74.66;98737.43;217349;1260;140528;-69
2024/04/17 12:36:06;;;;;;;2.40;2.20;;;;;;;7.12;74.82;98734.41;217521;1257;139868;-68
2024/04/17 12:41:08;;;;;;;2.50;2.10;;;;;;;7.13;74.70;98736.92;217216;1257;142789;-71
2024/04/17 12:46:10;;;;;;;4.10;2.70;;;;;;;7.11;74.53;98744.94;218116;1260;140141;-72
2024/04/17 12:51:14;;;;;;;3.90;3.60;;;;;;;7.19;74.63;98746.94;217991;1257;139844;-71
2024/04/17 12:56:18;;;;;;;3.90;3.60;;;;;;;7.36;75.00;98745.20;217656;1260;139528;-71
2024/04/17 13:01:20;;;;;;;3.40;2.80;;;;;;;7.56;75.12;98743.70;217252;1261;141131;-71
2024/04/17 13:06:21;;;;;;;2.60;2.40;;;;;;;7.68;74.85;98743.31;217421;1260;140166;-71
2024/04/17 13:11:23;;;;;;;2.80;2.50;;;;;;;7.66;74.48;98747.67;217315;1257;140264;-68
2024/04/17 13:16:24;;;;;;;5.90;2.70;;;;;;;7.56;74.27;98755.33;217560;1257;139637;-70
2024/04/17 13:21:26;;;;;;;3.10;2.80;;;;;;;7.44;74.28;98762.04;217408;1259;139913;-71
2024/04/17 13:26:27;;;;;;;4.80;3.30;;;;;;;7.30;74.10;98764.86;218335;1257;161679;-69
2024/04/17 13:31:28;;;;;;;4.20;3.50;;;;;;;7.24;74.41;98760.98;217472;1262;140952;-68
2024/04/17 13:36:30;;;;;;;3.80;3.50;;;;;;;7.20;74.23;98757.68;217300;1260;139444;-71
2024/04/17 13:41:31;;;;;;;6.40;4.00;;;;;;;7.21;74.56;98754.19;217694;1257;140243;-68
2024/04/17 13:46:33;;;;;;;3.70;3.40;;;;;;;7.15;74.49;98758.96;217090;1259;139367;-70
2024/04/17 13:51:35;;;;;;;3.40;3.20;;;;;;;7.21;74.77;98759.77;217248;1258;139450;-70
2024/04/17 13:56:36;;;;;;;4.70;3.70;;;;;;;7.32;74.90;98759.13;217578;1257;139458;-70
2024/04/17 14:01:38;;;;;;;9.40;6.00;;;;;;;7.42;74.58;98758.77;217516;1258;139403;-70
2024/04/17 14:06:39;;;;;;;3.90;3.60;;;;;;;7.50;74.52;98755.09;217225;1257;140055;-70
2024/04/17 14:11:40;;;;;;;10.20;7.90;;;;;;;7.59;74.51;98755.74;217244;1263;234102;-70
2024/04/17 14:16:44;;;;;;;5.10;4.60;;;;;;;7.77;74.76;98762.03;216747;1257;140021;-70
2024/04/17 14:21:46;;;;;;;5.00;4.40;;;;;;;7.84;73.98;98763.42;217192;1258;140780;-69
2024/04/17 14:26:47;;;;;;;3.90;3.50;;;;;;;7.86;73.88;98767.98;217252;1258;141093;-70
2024/04/17 14:31:54;;;;;;;4.10;3.70;;;;;;;7.91;73.74;98766.58;217839;1260;139416;-69
2024/04/17 14:37:07;;;;;;;4.20;3.80;;;;;;;7.87;73.39;98770.00;218093;1261;139938;-70
2024/04/17 14:42:12;;;;;;;4.50;3.80;;;;;;;7.81;73.22;98773.03;217766;1261;139676;-70
2024/04/17 14:47:14;;;;;;;4.40;3.10;;;;;;;7.74;73.05;98775.88;217013;1260;140994;-70
2024/04/17 14:52:21;;;;;;;4.30;3.50;;;;;;;7.69;72.98;98779.83;217839;1261;139746;-70
2024/04/17 14:57:26;;;;;;;3.30;3.00;;;;;;;7.70;72.86;98778.05;217673;1260;151564;-74
2024/04/17 15:02:40;;;;;;;3.90;3.50;;;;;;;7.75;72.77;98781.31;217565;1257;140165;-70
2024/04/17 15:07:44;;;;;;;4.50;3.10;;;;;;;7.84;72.87;98780.02;217999;1261;141684;-73
2024/04/17 15:12:50;;;;;;;4.40;3.40;;;;;;;7.87;72.68;98776.33;217661;1259;139908;-69
2024/04/17 15:17:54;;;;;;;5.90;4.60;;;;;;;7.85;72.56;98776.86;217799;1257;139413;-71
2024/04/17 15:23:07;;;;;;;3.90;3.50;;;;;;;7.88;72.90;98776.44;217328;1260;141196;-69
2024/04/17 15:28:12;;;;;;;4.00;3.30;;;;;;;7.94;72.72;98775.42;217466;1260;141090;-70
2024/04/17 15:33:14;;;;;;;5.20;3.40;;;;;;;8.04;72.42;98778.96;218039;1259;141199;-71
2024/04/17 15:38:15;;;;;;;3.00;2.70;;;;;;;8.09;72.13;98780.70;217740;1257;139567;-71
2024/04/17 15:43:19;;;;;;;5.40;2.90;;;;;;;8.10;72.08;98779.77;217744;1257;139869;-70
2024/04/17 15:48:23;;;;;;;4.30;2.90;;;;;;;8.13;72.19;98782.46;217231;1257;139663;-69
2024/04/17 15:53:28;;;;;;;4.00;3.20;;;;;;;8.15;71.78;98782.06;217642;1256;139656;-71
2024/04/17 15:58:33;;;;;;;4.60;3.00;;;;;;;8.16;71.79;98785.70;217306;1258;139548;-70
2024/04/17 16:03:36;;;;;;;4.40;2.90;;;;;;;8.21;72.06;98783.34;217578;1258;139993;-71
2024/04/17 16:08:47;;;;;;;4.50;3.10;;;;;;;8.23;72.06;98783.33;217325;1260;139518;-72
2024/04/17 16:13:57;;;;;;;5.20;3.10;;;;;;;8.30;72.04;98786.97;218052;1260;143370;-70
2024/04/17 16:19:07;;;;;;;5.50;4.30;;;;;;;8.46;71.96;98788.14;217252;1261;141076;-71
2024/04/17 16:24:10;;;;;;;2.60;2.40;;;;;;;8.53;71.16;98790.80;217854;1258;141911;-70
2024/04/17 16:29:12;;;;;;;2.20;1.90;;;;;;;8.62;70.86;98791.85;220123;1257;140882;-70
2024/04/17 16:34:13;;;;;;;7.20;4.10;;;;;;;8.70;70.43;98794.27;218908;1259;140267;-69
2024/04/17 16:39:21;;;;;;;7.80;4.40;;;;;;;8.75;69.98;98796.63;217617;1256;152648;-69
2024/04/17 16:44:28;;;;;;;4.00;2.60;;;;;;;8.67;69.33;98801.02;217682;1257;140038;-71
2024/04/17 16:49:34;;;;;;;5.90;5.00;;;;;;;8.51;69.30;98807.86;217190;1259;139928;-70
2024/04/17 16:54:48;;;;;;;3.00;2.80;;;;;;;8.33;69.31;98813.38;217323;1256;140917;-70
2024/04/17 16:59:50;;;;;;;4.60;2.60;;;;;;;8.18;69.84;98820.73;217196;1260;141488;-72
2024/04/17 17:04:56;;;;;;;2.90;2.70;;;;;;;8.05;70.09;98827.24;217310;1259;140636;-71
2024/04/17 17:10:07;;;;;;;2.60;2.40;;;;;;;7.94;70.57;98836.50;217308;1255;243464;-71
2024/04/17 17:15:17;;;;;;;2.70;2.50;;;;;;;7.84;70.17;98840.85;217313;1260;140915;-70
2024/04/17 17:20:19;;;;;;;4.10;2.70;;;;;;;7.73;70.73;98847.48;217503;1259;144345;-71
2024/04/17 17:25:20;;;;;;;4.20;3.80;;;;;;;7.60;71.04;98855.41;217686;1259;139598;-70
2024/04/17 17:30:22;;;;;;;4.80;4.30;;;;;;;7.41;71.17;98861.93;217506;1257;139625;-70
2024/04/17 17:35:23;;;;;;;5.20;4.40;;;;;;;7.18;71.54;98870.02;217300;1257;140132;-69
2024/04/17 17:40:24;;;;;;;9.70;4.90;;;;;;;7.01;72.07;98874.11;217068;1258;140198;-72
2024/04/17 17:45:25;;;;;;;4.70;4.30;;;;;;;6.81;71.30;98879.14;217057;1260;140055;-69
2024/04/17 17:50:27;;;;;;;4.20;2.80;;;;;;;6.57;71.35;98881.50;217309;1256;140410;-70
2024/04/17 17:55:29;;;;;;;4.90;4.10;;;;;;;6.33;71.82;98886.34;217301;1256;140477;-70
2024/04/17 18:00:31;;;;;;;3.50;2.60;;;;;;;6.06;71.73;98891.63;216991;1257;140398;-70
2024/04/17 18:05:32;;;;;;;3.20;2.40;;;;;;;5.78;71.90;98897.82;217401;1257;139711;-70
2024/04/17 18:10:34;;;;;;;4.00;1.90;;;;;;;5.49;71.84;98902.95;217179;1258;140339;-69
2024/04/17 18:15:36;;;;;;;3.20;2.10;;;;;;;5.26;72.29;98913.54;217289;1259;139965;-70
2024/04/17 18:20:37;;;;;;;2.70;2.40;;;;;;;5.03;72.30;98919.48;218001;1256;140235;-68
2024/04/17 18:25:39;;;;;;;1.90;1.80;;;;;;;4.84;72.70;98929.04;217139;1257;140498;-70
2024/04/17 18:30:40;;;;;;;3.20;2.90;;;;;;;4.68;73.24;98938.52;217839;1257;139450;-69
2024/04/17 18:35:41;;;;;;;4.80;3.60;;;;;;;4.51;73.18;98946.36;218660;1257;141267;-68
2024/04/17 18:40:45;;;;;;;4.60;2.80;;;;;;;4.31;73.41;98952.16;217501;1258;150414;-68
2024/04/17 18:45:47;;;;;;;4.30;3.90;;;;;;;4.10;73.20;98962.15;217661;1257;140844;-71
2024/04/17 18:50:48;;;;;;;3.40;3.00;;;;;;;3.93;73.74;98966.52;217958;1258;140040;-71
2024/04/17 18:56:01;;;;;;;7.00;4.60;;;;;;;3.80;74.12;98972.09;218011;1257;140283;-70
2024/04/17 19:01:04;;;;;;;15.10;8.60;;;;;;;3.70;74.61;98982.05;217876;1256;139609;-68
2024/04/17 19:06:07;;;;;;;14.20;7.90;;;;;;;3.65;74.91;98981.80;217200;1259;140748;-71
2024/04/17 19:11:12;;;;;;;9.10;7.30;;;;;;;3.49;74.82;98981.28;217216;1259;140470;-70
2024/04/17 19:16:17;;;;;;;16.70;10.80;;;;;;;3.34;74.78;98977.77;217391;1255;139479;-68
2024/04/17 19:21:19;;;;;;;10.90;7.80;;;;;;;3.17;74.78;98979.94;217569;1259;139853;-67
2024/04/17 19:26:20;;;;;;;13.50;8.10;;;;;;;3.00;75.35;98980.95;217199;1258;139568;-66
2024/04/17 19:31:22;;;;;;;14.20;7.10;;;;;;;2.91;75.65;98985.77;216910;1263;140109;-69
2024/04/17 19:36:23;;;;;;;27.50;12.20;;;;;;;2.83;75.78;98983.21;216974;1261;139896;-67
2024/04/17 19:41:25;;;;;;;14.20;8.60;;;;;;;2.68;75.63;98985.92;217196;1262;139814;-69
2024/04/17 19:46:26;;;;;;;14.60;8.50;;;;;;;2.46;75.34;98989.63;217481;1259;139517;-66
2024/04/17 19:51:28;;;;;;;16.20;8.80;;;;;;;2.27;75.64;98986.69;216959;1260;139571;-68
2024/04/17 19:56:30;;;;;;;32.50;15.30;;;;;;;2.14;76.19;98990.46;217407;1259;140607;-68
2024/04/17 20:01:31;;;;;;;31.40;13.00;;;;;;;2.10;76.47;98995.23;217102;1262;140569;-67
2024/04/17 20:06:32;;;;;;;35.60;16.40;;;;;;;2.04;76.66;98993.96;217297;1258;155768;-68
2024/04/17 20:11:34;;;;;;;35.70;18.60;;;;;;;1.97;76.84;98996.16;217064;1259;140198;-67
2024/04/17 20:16:37;;;;;;;44.00;19.50;;;;;;;1.88;76.95;98993.13;216920;1259;140196;-68
2024/04/17 20:21:44;;;;;;;40.50;19.00;;;;;;;1.82;77.33;98993.32;217054;1258;141111;-69
2024/04/17 20:26:46;;;;;;;45.40;22.60;;;;;;;1.73;77.24;98994.29;217975;1258;140154;-67
2024/04/17 20:31:48;;;;;;;42.10;22.90;;;;;;;1.64;77.27;98997.65;217987;1258;139770;-67
2024/04/17 20:36:50;;;;;;;30.10;18.40;;;;;;;1.53;76.78;98997.70;217859;1261;140293;-66
2024/04/17 20:41:51;;;;;;;30.80;15.90;;;;;;;1.39;77.13;98998.05;217683;1259;140162;-69
2024/04/17 20:46:53;;;;;;;27.10;15.70;;;;;;;1.28;77.24;98996.85;217202;1258;159849;-67
2024/04/17 20:51:54;;;;;;;30.90;18.40;;;;;;;1.22;77.34;99004.12;217950;1261;140104;-69
2024/04/17 20:56:56;;;;;;;30.60;19.40;;;;;;;1.16;77.55;99011.27;217104;1259;140011;-67
2024/04/17 21:01:57;;;;;;;35.60;21.80;;;;;;;1.07;77.51;99015.45;217044;1261;140266;-67
2024/04/17 21:06:59;;;;;;;30.20;19.00;;;;;;;0.98;77.70;99019.70;216896;1258;140228;-65
2024/04/17 21:12:03;;;;;;;32.50;22.60;;;;;;;0.90;77.98;99026.50;217019;1261;139865;-65
2024/04/17 21:17:05;;;;;;;37.60;21.50;;;;;;;0.78;77.71;99032.70;218753;1258;140254;-66
2024/04/17 21:22:06;;;;;;;39.60;23.70;;;;;;;0.70;78.00;99041.23;217486;1260;141498;-67
2024/04/17 21:27:07;;;;;;;41.60;21.60;;;;;;;0.67;78.36;99047.70;218011;1261;139934;-66
2024/04/17 21:32:08;;;;;;;41.20;21.80;;;;;;;0.55;77.99;99053.05;218633;1256;139898;-67
2024/04/17 21:37:09;;;;;;;35.40;22.60;;;;;;;0.42;77.86;99052.53;217308;1258;140567;-66
2024/04/17 21:42:10;;;;;;;32.90;18.40;;;;;;;0.35;78.12;99056.17;216973;1258;140875;-65
2024/04/17 21:47:11;;;;;;;40.50;21.70;;;;;;;0.28;78.54;99061.20;217125;1257;140311;-66
2024/04/17 21:52:13;;;;;;;45.50;23.70;;;;;;;0.23;78.89;99062.27;218142;1256;139743;-67
2024/04/17 21:57:15;;;;;;;41.90;23.40;;;;;;;0.20;79.09;99061.46;218763;1257;140604;-65
2024/04/17 22:02:16;;;;;;;37.00;19.50;;;;;;;0.18;79.25;99064.30;217016;1259;141501;-65
2024/04/17 22:07:18;;;;;;;35.70;20.50;;;;;;;0.15;78.80;99064.35;217149;1261;140415;-63
2024/04/17 22:12:19;;;;;;;34.10;18.60;;;;;;;0.08;78.93;99069.09;217588;1257;140934;-68
2024/04/17 22:17:20;;;;;;;27.70;17.80;;;;;;;-0.01;79.22;99075.34;217151;1259;139805;-66
2024/04/17 22:22:22;;;;;;;31.40;19.20;;;;;;;-0.05;79.53;99079.98;217013;1260;140175;-66
2024/04/17 22:27:24;;;;;;;40.60;23.80;;;;;;;-0.09;79.72;99079.10;217184;1261;140935;-65
2024/04/17 22:32:25;;;;;;;41.10;24.40;;;;;;;-0.15;79.57;99076.48;217568;1258;141238;-66
2024/04/17 22:37:26;;;;;;;37.30;20.00;;;;;;;-0.21;79.26;99075.46;216925;1259;140739;-66
2024/04/17 22:42:28;;;;;;;44.20;22.60;;;;;;;-0.25;79.99;99077.38;216939;1258;141165;-68
2024/04/17 22:47:30;;;;;;;40.80;22.30;;;;;;;-0.28;80.09;99076.48;217290;1258;140811;-66
2024/04/17 22:52:32;;;;;;;28.20;19.60;;;;;;;-0.30;80.07;99077.63;217314;1261;140046;-66
2024/04/17 22:57:33;;;;;;;38.90;22.90;;;;;;;-0.31;80.17;99080.21;217244;1261;140650;-67
2024/04/17 23:02:35;;;;;;;59.70;29.50;;;;;;;-0.34;80.31;99073.58;218478;1261;141849;-67
2024/04/17 23:07:36;;;;;;;53.60;32.70;;;;;;;-0.36;80.37;99076.17;217130;1257;141193;-65
2024/04/17 23:12:37;;;;;;;80.30;41.30;;;;;;;-0.39;80.32;99075.72;217053;1259;139980;-68
2024/04/17 23:17:40;;;;;;;80.80;39.50;;;;;;;-0.45;80.33;99076.71;217056;1261;140934;-65
2024/04/17 23:22:41;;;;;;;85.60;40.30;;;;;;;-0.52;80.27;99074.77;217085;1259;139728;-66
2024/04/17 23:27:44;;;;;;;113.20;45.10;;;;;;;-0.59;80.36;99074.58;217091;1259;141301;-66